Time;durP1;ratioP1;P1;durP2;ratioP2;P2;SDS_P1;SDS_P2;PMS_P1;PMS_P2;Temp;Humidity;BMP_temperature;BMP_pressure;BME280_temperature;BME280_humidity;BME280_pressure;Samples;Min_cycle;Max_cycle;Signal;HPM_P1;HPM_P2
2023/07/11 00:07:43;;;;;;;;;;;;;;;25.89;49.53;100353.19;41786723;28;19979;-82
2023/07/11 00:27:44;;;;;;;;;;;;;;;25.71;49.57;100347.84;41787544;28;19928;-79
2023/07/11 00:47:44;;;;;;;;;;;;;;;25.53;50.02;100347.81;41822349;28;20397;-80
2023/07/11 01:07:50;;;;;;;;;;;;;;;25.56;49.76;100334.28;41786415;28;19933;-81
2023/07/11 01:27:51;;;;;;;;;;;;;;;25.52;48.75;100332.06;41773933;28;19929;-81
2023/07/11 01:47:51;;;;;;;;;;;;;;;25.49;47.93;100312.00;41768511;28;19929;-79
2023/07/11 02:07:52;;;;;;;;;;;;;;;25.45;46.98;100304.50;41812147;28;20380;-81
2023/07/11 02:27:52;;;;;;;;;;;;;;;25.44;47.07;100302.81;41695914;28;20028;-80
2023/07/11 02:47:52;;;;;;;;;;;;;;;25.38;47.71;100294.47;41640180;28;19929;-80
2023/07/11 03:07:53;;;;;;;;;;;;;;;25.35;48.35;100300.06;41648719;28;19948;-79
2023/07/11 03:27:53;;;;;;;;;;;;;;;25.24;49.21;100306.41;41756084;28;20426;-81
2023/07/11 03:47:53;;;;;;;;;;;;;;;25.09;49.84;100316.63;41794092;28;20471;-80
2023/07/11 04:07:54;;;;;;;;;;;;;;;25.01;50.78;100321.00;41794930;28;19924;-79
2023/07/11 04:27:56;;;;;;;;;;;;;;;25.06;50.88;100338.13;41800916;28;19973;-90
2023/07/11 04:47:56;;;;;;;;;;;;;;;25.26;50.56;100338.88;41820967;28;19992;-90
2023/07/11 05:07:57;;;;;;;;;;;;;;;25.06;50.14;100343.44;41806517;28;19933;-82
2023/07/11 05:27:57;;;;;;;;;;;;;;;25.21;50.07;100346.44;41859133;28;19925;-86
2023/07/11 05:47:59;;;;;;;;;;;;;;;25.33;49.98;100357.69;41848459;28;19948;-85
2023/07/11 06:07:59;;;;;;;;;;;;;;;25.38;50.00;100379.31;41842994;28;19909;-86
2023/07/11 06:28:00;;;;;;;;;;;;;;;25.56;49.55;100384.66;41831952;28;19985;-85
2023/07/11 06:48:01;;;;;;;;;;;;;;;25.75;48.40;100376.75;41832104;28;19933;-86
2023/07/11 07:08:02;;;;;;;;;;;;;;;25.82;48.77;100383.94;41841709;28;20354;-86
2023/07/11 07:28:03;;;;;;;;;;;;;;;26.02;48.81;100392.63;41832423;28;19931;-82
2023/07/11 07:48:03;;;;;;;;;;;;;;;26.21;48.59;100380.22;41852178;28;19915;-81
2023/07/11 08:08:04;;;;;;;;;;;;;;;26.41;47.37;100378.19;41851096;28;19925;-87
2023/07/11 08:28:05;;;;;;;;;;;;;;;26.54;45.64;100375.16;41821380;28;19925;-84
2023/07/11 08:48:16;;;;;;;;;;;;;;;26.67;44.84;100385.34;41844339;28;19983;-91
2023/07/11 09:08:17;;;;;;;;;;;;;;;26.83;44.78;100387.31;41809805;28;20007;-84
2023/07/11 09:28:26;;;;;;;;;;;;;;;26.92;43.01;100390.88;41869761;28;19925;-81
2023/07/11 09:48:36;;;;;;;;;;;;;;;27.04;43.24;100376.34;41849382;28;19933;-81
2023/07/11 10:08:40;;;;;;;;;;;;;;;27.16;43.12;100360.97;41881327;28;19955;-83
2023/07/11 10:28:43;;;;;;;;;;;;;;;27.35;42.52;100391.75;41869706;28;19932;-82
2023/07/11 10:48:50;;;;;;;;;;;;;;;27.56;43.21;100367.44;41886230;28;19936;-86
2023/07/11 11:09:07;;;;;;;;;;;;;;;27.82;43.15;100347.88;41890288;28;19928;-84
2023/07/11 11:29:10;;;;;;;;;;;;;;;28.01;40.38;100319.28;41844620;28;19930;-82
2023/07/11 11:49:11;;;;;;;;;;;;;;;28.13;39.95;100315.31;41857056;28;19933;-85
2023/07/11 12:09:17;;;;;;;;;;;;;;;28.27;41.03;100313.81;41876192;28;19924;-81
2023/07/11 12:29:36;;;;;;;;;;;;;;;28.47;40.32;100300.16;41860263;28;19925;-83
2023/07/11 12:49:39;;;;;;;;;;;;;;;28.57;39.82;100276.81;41864637;28;19995;-80
2023/07/11 13:09:42;;;;;;;;;;;;;;;28.70;39.67;100285.13;41867072;28;19960;-80
2023/07/11 13:29:42;;;;;;;;;;;;;;;28.87;38.50;100261.91;41872494;28;19932;-83
2023/07/11 13:49:45;;;;;;;;;;;;;;;29.07;37.65;100256.97;41854321;28;20410;-81
2023/07/11 14:09:45;;;;;;;;;;;;;;;29.15;36.17;100256.13;41868755;28;19932;-79
2023/07/11 14:29:45;;;;;;;;;;;;;;;29.28;35.55;100242.19;41890094;28;19933;-82
2023/07/11 14:49:46;;;;;;;;;;;;;;;29.22;36.70;100237.56;41824751;28;19936;-83
2023/07/11 15:09:46;;;;;;;;;;;;;;;29.23;37.84;100208.09;41798509;28;19936;-82
2023/07/11 15:29:46;;;;;;;;;;;;;;;29.24;37.88;100195.56;41784199;28;21144;-82
2023/07/11 15:49:47;;;;;;;;;;;;;;;29.29;37.49;100203.88;41780389;28;19937;-83
2023/07/11 16:09:47;;;;;;;;;;;;;;;29.29;37.61;100197.72;41799139;28;20350;-84
2023/07/11 16:29:48;;;;;;;;;;;;;;;29.28;37.81;100199.53;41790042;28;19993;-82
2023/07/11 16:49:49;;;;;;;;;;;;;;;29.21;38.13;100195.91;41768775;28;20289;-82
2023/07/11 17:09:49;;;;;;;;;;;;;;;29.12;37.15;100221.00;41800947;28;19978;-79
2023/07/11 17:29:52;;;;;;;;;;;;;;;28.97;37.59;100232.38;41864312;28;20007;-80
2023/07/11 17:49:55;;;;;;;;;;;;;;;28.84;37.61;100235.59;41867146;28;19929;-80
2023/07/11 18:09:56;;;;;;;;;;;;;;;28.68;37.26;100244.50;41873389;28;19924;-79
2023/07/11 18:29:57;;;;;;;;;;;;;;;28.56;37.70;100238.69;41820387;28;19960;-79
2023/07/11 18:49:58;;;;;;;;;;;;;;;28.40;37.63;100228.09;41781999;28;20934;-79
2023/07/11 19:10:00;;;;;;;;;;;;;;;28.18;38.90;100233.13;41809726;28;19978;-78
2023/07/11 19:30:00;;;;;;;;;;;;;;;28.01;39.28;100244.75;41791483;28;19925;-88
2023/07/11 19:50:01;;;;;;;;;;;;;;;27.84;40.82;100246.59;41859716;22;20663;-90
2023/07/11 20:10:12;;;;;;;;;;;;;;;27.73;41.11;100248.59;41504728;28;20028;-90
2023/07/11 20:30:17;;;;;;;;;;;;;;;27.35;41.97;100244.72;41403008;28;19933;-88
2023/07/11 20:50:17;;;;;;;;;;;;;;;27.11;43.27;100249.81;41403815;28;19976;-91
2023/07/11 21:10:23;;;;;;;;;;;;;;;27.01;43.86;100227.81;41424217;28;19929;-94
2023/07/11 21:30:36;;;;;;;;;;;;;;;26.77;44.75;100220.59;41437171;28;20040;-89
2023/07/11 21:50:36;;;;;;;;;;;;;;;26.73;44.81;100190.03;41425043;28;19937;-89
2023/07/11 22:10:45;;;;;;;;;;;;;;;26.51;45.12;100198.41;41429285;28;19933;-89
2023/07/11 22:30:46;;;;;;;;;;;;;;;26.14;46.02;100201.34;41451170;28;20031;-85
2023/07/11 22:50:47;;;;;;;;;;;;;;;25.87;47.26;100200.47;41410536;28;20413;-86
2023/07/11 23:10:48;;;;;;;;;;;;;;;25.69;47.59;100211.09;41422043;28;20304;-86
2023/07/11 23:30:48;;;;;;;;;;;;;;;25.55;47.46;100213.31;41412612;28;19932;-86
2023/07/11 23:50:54;;;;;;;;;;;;;;;25.42;47.42;100202.25;41423897;28;20159;-86
